University of Arkansas, Arkansas
Current Conditions -  °F | °C
As of 12:53 PM on Friday 24 Oct 2014 (Local Time) from KLLQ Reporting Station
Light Rain Light Rain  
Wind Chill: 70°   Ceiling: Unl
Heat Index: 70°   Visibility: 10mi
Dew Point: 50°   Wind: 5mph
Humidity: 49%   Direction: NA
Pressure: 30.15"   Gusts: NA
Location:  33.6289°N, 91.7906°W
Report Text: KLLQ 241753Z AUTO VRB04KT 10SM -RA CLR 21/10 A3015 RMK AO2 RAE04B25 SLP207 P0000 60000 T02110100 10217 20067 58013
Loading
Personal Weather Stations






























Interactive Weather Map
Tropical Storm Tracking
New forecast layout! Learn more

10-Day Weather Forecast

Advertisements
Track Severe Weather on mobile